Time;durP1;ratioP1;P1;durP2;ratioP2;P2;SDS_P1;SDS_P2;PMS_P1;PMS_P2;Temp;Humidity;BMP_temperature;BMP_pressure;BME280_temperature;BME280_humidity;BME280_pressure;Samples;Min_cycle;Max_cycle;Signal;HPM_P1;HPM_P2
2022/01/03 00:00:52;;;;;;;14.25;11.80;;;19.00;69.40;;;;;;4993945;28;20077;-22
2022/01/03 00:03:18;;;;;;;16.25;12.65;;;19.00;69.50;;;;;;4994375;28;20046;-20
2022/01/03 00:05:43;;;;;;;16.25;12.32;;;19.00;69.50;;;;;;4995993;28;20104;-22
2022/01/03 00:08:09;;;;;;;16.70;12.13;;;19.00;69.40;;;;;;4993689;28;20141;-22
2022/01/03 00:10:36;;;;;;;17.05;12.50;;;19.00;69.50;;;;;;4992400;28;20112;-21
2022/01/03 00:13:02;;;;;;;17.05;12.27;;;19.00;69.50;;;;;;4994914;28;20038;-22
2022/01/03 00:15:28;;;;;;;15.40;11.52;;;19.00;69.40;;;;;;4993348;28;20120;-23
2022/01/03 00:17:53;;;;;;;20.10;12.90;;;19.00;69.40;;;;;;4995091;28;20030;-21
2022/01/03 00:20:20;;;;;;;16.77;11.63;;;19.00;69.40;;;;;;4994131;28;20026;-23
2022/01/03 00:23:03;;;;;;;14.45;11.20;;;19.00;69.50;;;;;;4993554;28;20030;-22
2022/01/03 00:25:29;;;;;;;13.85;10.73;;;19.00;69.60;;;;;;4990646;28;20034;-22
2022/01/03 00:27:58;;;;;;;13.57;10.73;;;19.00;69.50;;;;;;4972042;28;20418;-22
2022/01/03 00:30:24;;;;;;;15.13;11.45;;;18.90;69.50;;;;;;4991854;28;20038;-22
2022/01/03 00:32:51;;;;;;;13.25;10.10;;;18.90;69.40;;;;;;4989684;28;20021;-22
2022/01/03 00:35:17;;;;;;;12.80;10.82;;;18.90;69.40;;;;;;4989499;28;20026;-22
2022/01/03 00:37:44;;;;;;;15.18;10.68;;;18.90;69.50;;;;;;4992637;28;20031;-22
2022/01/03 00:40:10;;;;;;;13.68;10.82;;;18.90;69.50;;;;;;4993561;28;20026;-21
2022/01/03 00:42:35;;;;;;;12.80;9.82;;;18.90;69.50;;;;;;4992787;28;20045;-24
2022/01/03 00:45:02;;;;;;;12.27;10.00;;;18.90;69.60;;;;;;4990557;28;20030;-21
2022/01/03 00:47:34;;;;;;;14.05;10.20;;;18.90;69.60;;;;;;4992686;28;20026;-22
2022/01/03 00:50:12;;;;;;;12.93;9.63;;;18.90;69.50;;;;;;4988548;28;20072;-22
2022/01/03 00:52:38;;;;;;;12.90;9.52;;;18.90;69.40;;;;;;4993299;28;20102;-20
2022/01/03 00:55:04;;;;;;;12.55;9.85;;;18.90;69.50;;;;;;4991229;28;20046;-22
2022/01/03 00:57:41;;;;;;;10.30;9.20;;;18.90;69.50;;;;;;4992866;28;20105;-22
2022/01/03 01:00:09;;;;;;;10.43;8.93;;;18.90;69.30;;;;;;4994055;28;20034;-22
2022/01/03 01:02:36;;;;;;;11.93;9.32;;;18.90;70.30;;;;;;4992309;28;20034;-22
2022/01/03 01:05:03;;;;;;;12.25;9.75;;;18.90;69.60;;;;;;4995308;28;20041;-22
2022/01/03 01:07:29;;;;;;;12.95;10.02;;;18.80;69.40;;;;;;4993872;28;20033;-22
2022/01/03 01:09:55;;;;;;;10.80;8.85;;;18.90;69.50;;;;;;4994334;28;20721;-22
2022/01/03 01:12:20;;;;;;;9.77;8.68;;;18.90;69.40;;;;;;4991589;28;20030;-22
2022/01/03 01:14:50;;;;;;;10.18;8.50;;;18.90;69.50;;;;;;4976393;28;20061;-20
2022/01/03 01:17:15;;;;;;;10.80;7.95;;;18.80;69.40;;;;;;4985507;28;20049;-21
2022/01/03 01:19:41;;;;;;;10.65;8.13;;;18.80;69.50;;;;;;4991362;28;20030;-22
2022/01/03 01:22:06;;;;;;;9.25;7.80;;;18.80;69.50;;;;;;4992976;28;20101;-22
2022/01/03 01:24:44;;;;;;;8.23;7.30;;;18.80;69.40;;;;;;4993351;28;20031;-22
2022/01/03 01:29:54;;;;;;;9.57;7.80;;;18.80;69.50;;;;;;4994693;28;20038;-21
2022/01/03 01:32:20;;;;;;;8.65;7.22;;;18.80;69.40;;;;;;4992859;28;20022;-22
2022/01/03 01:34:45;;;;;;;9.05;7.90;;;18.80;69.50;;;;;;4991255;28;20037;-22
2022/01/03 01:37:11;;;;;;;9.07;8.07;;;18.80;69.40;;;;;;4992229;28;20031;-20
2022/01/03 01:39:36;;;;;;;8.73;7.15;;;18.80;69.40;;;;;;4977028;28;20030;-22
2022/01/03 01:42:03;;;;;;;8.18;7.13;;;18.80;69.40;;;;;;4988799;28;20466;-23
2022/01/03 01:44:33;;;;;;;7.75;6.70;;;18.80;69.50;;;;;;4993338;28;20041;-22
2022/01/03 01:47:05;;;;;;;7.50;6.22;;;18.80;69.50;;;;;;4988640;28;20026;-21
2022/01/03 01:49:31;;;;;;;8.43;6.65;;;18.80;70.40;;;;;;4994605;28;20036;-21
2022/01/03 01:52:01;;;;;;;8.65;7.20;;;18.80;69.50;;;;;;4974802;28;20029;-22
2022/01/03 01:54:34;;;;;;;8.23;7.22;;;18.80;69.50;;;;;;4983666;28;20030;-22
2022/01/03 01:57:06;;;;;;;8.43;7.10;;;18.80;69.40;;;;;;4993778;28;20529;-22
2022/01/03 01:59:40;;;;;;;8.00;7.20;;;18.80;69.50;;;;;;4997099;28;20034;-22
2022/01/03 02:02:07;;;;;;;7.55;6.55;;;18.80;69.40;;;;;;4998364;28;20133;-22
2022/01/03 02:04:48;;;;;;;9.00;7.28;;;18.80;69.50;;;;;;4987174;28;20047;-22
2022/01/03 02:07:33;;;;;;;7.55;6.65;;;18.80;69.50;;;;;;4990134;28;20050;-22
2022/01/03 02:10:10;;;;;;;8.63;7.07;;;18.80;69.40;;;;;;4997049;28;20046;-22
2022/01/03 02:12:43;;;;;;;7.20;6.30;;;18.80;69.40;;;;;;4997597;28;20042;-22
2022/01/03 02:15:11;;;;;;;8.45;6.68;;;18.80;69.40;;;;;;4994572;28;20038;-22
2022/01/03 02:17:37;;;;;;;7.10;6.22;;;18.80;69.50;;;;;;4997492;28;20078;-20
2022/01/03 02:20:10;;;;;;;6.82;6.05;;;18.80;69.40;;;;;;4995132;28;20026;-22
2022/01/03 02:22:39;;;;;;;6.38;5.78;;;18.80;69.30;;;;;;4997644;28;20026;-22
2022/01/03 02:25:06;;;;;;;6.45;5.82;;;18.80;69.30;;;;;;4993369;28;20069;-21
2022/01/03 02:27:32;;;;;;;6.53;5.93;;;18.80;69.30;;;;;;4978890;28;20023;-22
2022/01/03 02:29:58;;;;;;;8.57;6.35;;;18.80;69.20;;;;;;4992635;28;20037;-22
2022/01/03 02:32:24;;;;;;;6.82;6.13;;;18.80;69.20;;;;;;4997964;28;20030;-22
2022/01/03 02:34:49;;;;;;;6.97;6.13;;;18.80;69.10;;;;;;4996066;28;20032;-22
2022/01/03 02:37:15;;;;;;;6.65;5.82;;;18.80;69.30;;;;;;4997366;28;20037;-21
2022/01/03 02:39:41;;;;;;;6.68;5.65;;;18.80;69.20;;;;;;4997121;28;20104;-20
2022/01/03 02:42:06;;;;;;;7.32;5.82;;;18.80;69.30;;;;;;4996740;28;20038;-22
2022/01/03 02:44:32;;;;;;;6.80;6.03;;;18.80;69.30;;;;;;4989595;28;20061;-21
2022/01/03 02:46:58;;;;;;;6.65;5.97;;;18.80;69.30;;;;;;4997401;28;20046;-21
2022/01/03 02:49:23;;;;;;;6.25;5.70;;;18.70;69.30;;;;;;4996454;28;20030;-22
2022/01/03 02:51:49;;;;;;;6.00;5.43;;;18.70;69.20;;;;;;4995909;28;20431;-22
2022/01/03 02:54:14;;;;;;;6.68;5.78;;;18.70;69.30;;;;;;4998064;28;20038;-21
2022/01/03 02:56:42;;;;;;;5.95;5.40;;;18.70;69.40;;;;;;4997542;28;20105;-22
2022/01/03 02:59:15;;;;;;;5.72;5.10;;;18.70;69.20;;;;;;4991195;28;20038;-22
2022/01/03 03:01:43;;;;;;;6.07;5.43;;;18.70;69.30;;;;;;4981767;28;20526;-22
2022/01/03 03:04:09;;;;;;;5.38;4.78;;;18.70;69.30;;;;;;4988660;28;20467;-22
2022/01/03 03:06:35;;;;;;;6.22;5.43;;;18.70;69.30;;;;;;4995486;28;20026;-20
2022/01/03 03:09:04;;;;;;;6.38;5.63;;;18.70;69.50;;;;;;4996852;28;20097;-20
2022/01/03 03:11:32;;;;;;;6.97;6.25;;;18.70;69.40;;;;;;4996193;28;20041;-22
2022/01/03 03:13:57;;;;;;;5.88;5.30;;;18.70;69.20;;;;;;4997654;28;20042;-22
2022/01/03 03:16:23;;;;;;;5.45;4.97;;;18.70;69.30;;;;;;4997290;28;20057;-23
2022/01/03 03:18:49;;;;;;;6.07;4.90;;;18.70;69.20;;;;;;4997489;28;20027;-22
2022/01/03 03:21:14;;;;;;;6.45;5.15;;;18.70;69.30;;;;;;4995781;28;20033;-22
2022/01/03 03:23:40;;;;;;;5.28;4.82;;;18.70;69.30;;;;;;4987618;28;20511;-22
2022/01/03 03:26:05;;;;;;;6.68;5.03;;;18.70;69.50;;;;;;4995844;28;20081;-22
2022/01/03 03:28:31;;;;;;;5.50;4.97;;;18.70;69.40;;;;;;4996604;28;20402;-22
2022/01/03 03:30:58;;;;;;;6.82;4.90;;;18.70;69.50;;;;;;4996693;28;20057;-23
2022/01/03 03:33:24;;;;;;;6.75;5.30;;;18.70;69.30;;;;;;4996897;28;20026;-22
2022/01/03 03:35:51;;;;;;;5.65;5.03;;;18.70;69.40;;;;;;4997548;28;20081;-23
2022/01/03 03:38:17;;;;;;;5.22;4.72;;;18.70;69.20;;;;;;4996557;28;20034;-23
2022/01/03 03:40:45;;;;;;;5.25;4.22;;;18.70;69.30;;;;;;4987084;28;20062;-22
2022/01/03 03:43:12;;;;;;;5.03;4.63;;;18.70;69.40;;;;;;4983222;28;20035;-21
2022/01/03 03:45:37;;;;;;;4.70;4.30;;;18.70;69.40;;;;;;4994414;28;20137;-22
2022/01/03 03:48:03;;;;;;;5.18;4.78;;;18.70;69.40;;;;;;4996510;28;20054;-22
2022/01/03 03:50:29;;;;;;;5.25;4.75;;;18.70;69.40;;;;;;4996343;28;20076;-22
2022/01/03 03:52:54;;;;;;;5.38;4.82;;;18.70;69.40;;;;;;4995233;28;20672;-22
2022/01/03 03:55:20;;;;;;;4.93;4.43;;;18.60;69.30;;;;;;4995928;28;20130;-22
2022/01/03 03:57:45;;;;;;;4.95;4.10;;;18.70;70.20;;;;;;4992981;28;20062;-22
2022/01/03 04:00:16;;;;;;;4.60;4.20;;;18.70;69.40;;;;;;4995752;28;20034;-22
2022/01/03 04:02:42;;;;;;;4.50;4.10;;;18.60;69.40;;;;;;4994346;28;20057;-20
2022/01/03 04:05:08;;;;;;;4.15;3.85;;;18.70;69.40;;;;;;4996382;28;20470;-21
2022/01/03 04:07:34;;;;;;;4.70;4.30;;;18.60;69.30;;;;;;4995688;28;20042;-20
2022/01/03 04:09:59;;;;;;;4.03;3.72;;;18.60;69.40;;;;;;4993800;28;20038;-22
2022/01/03 04:12:25;;;;;;;5.55;3.95;;;18.70;69.30;;;;;;4995398;28;20045;-22
2022/01/03 04:14:50;;;;;;;4.22;3.83;;;18.60;69.30;;;;;;4995290;28;20026;-22
2022/01/03 04:17:16;;;;;;;3.75;3.45;;;18.60;69.30;;;;;;4995786;28;20499;-20
2022/01/03 04:19:42;;;;;;;4.15;3.75;;;18.60;69.50;;;;;;4996423;28;20018;-22
2022/01/03 04:22:07;;;;;;;3.78;3.47;;;18.60;69.50;;;;;;4996470;28;20030;-22
2022/01/03 04:24:33;;;;;;;4.47;4.05;;;18.60;69.40;;;;;;4994792;28;20606;-22
2022/01/03 04:26:59;;;;;;;3.92;3.60;;;18.60;69.50;;;;;;4995512;28;20109;-22
2022/01/03 04:29:24;;;;;;;4.30;3.92;;;18.60;69.40;;;;;;4996437;28;20027;-22
2022/01/03 04:31:50;;;;;;;3.42;3.13;;;18.60;69.40;;;;;;4993705;28;20077;-21
2022/01/03 04:34:16;;;;;;;4.25;3.85;;;18.60;69.40;;;;;;4984188;28;20085;-22
2022/01/03 04:36:41;;;;;;;3.88;3.47;;;18.60;69.20;;;;;;4976888;28;20093;-21
2022/01/03 04:39:08;;;;;;;3.65;3.33;;;18.60;69.30;;;;;;4993094;28;20431;-22
2022/01/03 04:41:33;;;;;;;3.65;3.33;;;18.60;69.50;;;;;;4993411;28;20030;-22
2022/01/03 04:44:00;;;;;;;3.95;3.65;;;18.60;69.50;;;;;;4994457;28;20030;-22
2022/01/03 04:46:26;;;;;;;3.80;3.50;;;18.60;69.50;;;;;;4995687;28;20032;-22
2022/01/03 04:48:52;;;;;;;3.47;3.22;;;18.60;69.50;;;;;;4994879;28;20130;-22
2022/01/03 04:51:17;;;;;;;4.00;3.70;;;18.60;69.40;;;;;;4995204;28;20511;-23
2022/01/03 04:53:43;;;;;;;3.63;3.33;;;18.60;69.50;;;;;;4995336;28;20023;-21
2022/01/03 04:56:13;;;;;;;3.72;3.42;;;18.60;69.50;;;;;;4993470;28;20037;-20
2022/01/03 04:58:38;;;;;;;3.33;3.03;;;18.60;69.60;;;;;;4994866;28;20494;-22
2022/01/03 05:01:04;;;;;;;3.28;3.00;;;18.50;69.40;;;;;;4994559;28;20041;-22
2022/01/03 05:03:30;;;;;;;3.20;3.00;;;18.60;69.50;;;;;;4994726;28;20073;-21
2022/01/03 05:05:56;;;;;;;3.50;3.20;;;18.60;69.50;;;;;;4995458;28;20030;-21
2022/01/03 05:08:21;;;;;;;3.22;3.03;;;18.60;69.40;;;;;;4995684;28;20050;-21
2022/01/03 05:10:47;;;;;;;3.08;2.88;;;18.60;69.50;;;;;;4993810;28;20026;-22
2022/01/03 05:13:12;;;;;;;2.85;2.65;;;18.60;69.50;;;;;;4993632;28;20113;-22
2022/01/03 05:15:38;;;;;;;3.80;3.35;;;18.60;69.40;;;;;;4995368;28;20022;-21
2022/01/03 05:18:03;;;;;;;3.13;2.92;;;18.60;69.40;;;;;;4995497;28;20367;-21
2022/01/03 05:20:29;;;;;;;3.38;2.83;;;18.50;69.40;;;;;;4994458;28;20034;-23
2022/01/03 05:22:55;;;;;;;2.83;2.55;;;18.50;69.40;;;;;;4995301;28;20034;-20
2022/01/03 05:25:20;;;;;;;2.83;2.45;;;18.60;69.40;;;;;;4993742;28;20053;-22
2022/01/03 05:27:46;;;;;;;2.92;2.72;;;18.60;69.40;;;;;;4994571;28;20089;-22
2022/01/03 05:30:12;;;;;;;3.67;3.38;;;18.50;69.40;;;;;;4993439;28;20030;-21
2022/01/03 05:32:37;;;;;;;2.90;2.60;;;18.60;69.60;;;;;;4994206;28;20023;-22
2022/01/03 05:35:03;;;;;;;3.78;2.97;;;18.50;69.60;;;;;;4996527;28;20026;-21
2022/01/03 05:37:29;;;;;;;2.83;2.63;;;18.50;69.50;;;;;;4997602;28;20081;-22
2022/01/03 05:39:55;;;;;;;5.03;2.90;;;18.50;69.50;;;;;;4998087;28;20034;-22
2022/01/03 05:42:20;;;;;;;2.67;2.47;;;18.50;69.40;;;;;;4994285;28;20283;-22
2022/01/03 05:44:46;;;;;;;3.05;2.75;;;18.50;69.40;;;;;;4997793;28;20038;-20
2022/01/03 05:47:11;;;;;;;2.90;2.60;;;18.50;69.50;;;;;;4996246;28;20034;-20
2022/01/03 05:49:37;;;;;;;2.88;2.67;;;18.50;69.50;;;;;;4995575;28;20027;-21
2022/01/03 05:52:03;;;;;;;2.50;2.30;;;18.50;69.50;;;;;;4997299;28;20022;-22
2022/01/03 05:54:28;;;;;;;2.40;2.20;;;18.50;69.40;;;;;;4998151;28;20054;-21
2022/01/03 05:56:54;;;;;;;2.63;2.42;;;18.50;69.50;;;;;;4997631;28;20045;-22
2022/01/03 05:59:20;;;;;;;2.78;2.55;;;18.60;69.60;;;;;;4998601;28;20038;-22
2022/01/03 06:01:46;;;;;;;3.53;3.25;;;18.60;70.30;;;;;;4998310;28;20382;-22
2022/01/03 06:06:53;;;;;;;4.10;3.70;;;18.60;72.00;;;;;;4998228;28;20045;-20
2022/01/03 06:09:19;;;;;;;3.83;3.53;;;18.60;72.50;;;;;;4996632;28;20052;-22
2022/01/03 06:11:44;;;;;;;3.60;3.30;;;18.60;71.40;;;;;;4998014;28;20121;-21
2022/01/03 06:14:10;;;;;;;4.18;3.85;;;18.60;72.40;;;;;;4982751;28;20038;-21
2022/01/03 06:16:35;;;;;;;4.68;3.47;;;18.60;71.30;;;;;;4995960;28;20041;-21
2022/01/03 06:19:01;;;;;;;4.28;3.88;;;18.60;71.60;;;;;;4998167;28;20030;-22
2022/01/03 06:21:27;;;;;;;3.65;3.35;;;18.60;71.60;;;;;;4990336;28;20038;-22
2022/01/03 06:23:52;;;;;;;3.75;3.45;;;18.60;71.50;;;;;;4993309;28;20050;-22
2022/01/03 06:26:18;;;;;;;4.07;3.67;;;18.50;71.50;;;;;;4996863;28;20522;-22
2022/01/03 06:28:43;;;;;;;3.50;3.20;;;18.60;71.50;;;;;;4996724;28;20027;-22
2022/01/03 06:31:09;;;;;;;3.95;3.58;;;18.50;71.50;;;;;;4997903;28;20690;-22
2022/01/03 06:33:34;;;;;;;6.53;4.40;;;18.60;72.30;;;;;;4995213;28;20023;-21
2022/01/03 06:36:00;;;;;;;6.38;4.00;;;18.60;71.90;;;;;;4998858;28;20089;-21
2022/01/03 06:38:26;;;;;;;12.60;5.53;;;18.70;72.30;;;;;;4998118;28;20034;-22
2022/01/03 06:40:52;;;;;;;11.98;5.28;;;18.70;73.00;;;;;;4998106;28;20375;-22
2022/01/03 06:43:18;;;;;;;12.35;5.78;;;18.70;73.20;;;;;;4998497;28;20088;-22
2022/01/03 06:45:43;;;;;;;9.32;5.18;;;18.70;73.20;;;;;;4995571;28;20027;-22
2022/01/03 06:48:09;;;;;;;10.48;5.60;;;18.70;73.00;;;;;;4997186;28;20056;-21
2022/01/03 06:50:36;;;;;;;10.35;4.97;;;18.70;73.00;;;;;;4997706;28;20019;-22
2022/01/03 06:53:02;;;;;;;13.93;4.35;;;18.70;73.00;;;;;;4996307;28;20037;-22
2022/01/03 06:55:28;;;;;;;7.90;5.20;;;18.70;72.60;;;;;;4997012;28;20714;-22
2022/01/03 06:57:53;;;;;;;7.72;4.53;;;18.70;72.60;;;;;;4996016;28;20042;-22
2022/01/03 07:00:19;;;;;;;11.93;4.95;;;18.70;72.70;;;;;;4997207;28;20029;-22
2022/01/03 07:02:44;;;;;;;9.68;5.15;;;18.70;72.60;;;;;;4995710;28;20034;-22
2022/01/03 07:05:10;;;;;;;8.10;4.57;;;18.70;72.50;;;;;;4997522;28;20031;-22
2022/01/03 07:07:36;;;;;;;10.43;4.70;;;18.70;72.60;;;;;;4995605;28;20027;-22
2022/01/03 07:10:02;;;;;;;9.18;4.75;;;18.60;72.40;;;;;;4996170;28;20026;-23
2022/01/03 07:12:27;;;;;;;7.32;3.97;;;18.70;72.40;;;;;;4993991;28;20920;-22
2022/01/03 07:20:09;;;;;;;6.38;3.75;;;18.70;72.20;;;;;;4993498;28;20519;-23
2022/01/03 07:22:39;;;;;;;6.80;3.80;;;18.70;72.00;;;;;;4995393;28;20044;-22
2022/01/03 07:25:08;;;;;;;7.20;4.60;;;18.60;72.00;;;;;;4994224;28;20113;-25
2022/01/03 07:27:34;;;;;;;5.53;3.63;;;18.60;72.10;;;;;;4993509;28;20053;-22
2022/01/03 07:29:59;;;;;;;6.28;4.00;;;18.70;71.90;;;;;;4995100;28;20084;-22
2022/01/03 07:32:25;;;;;;;5.07;3.83;;;18.60;71.90;;;;;;4993943;28;20039;-21
2022/01/03 07:34:51;;;;;;;6.03;3.35;;;18.70;71.80;;;;;;4993817;28;21334;-22
2022/01/03 07:37:16;;;;;;;5.95;3.53;;;18.60;71.70;;;;;;4993027;28;20046;-21
2022/01/03 07:39:42;;;;;;;5.47;3.53;;;18.70;71.50;;;;;;4992479;28;20067;-22
2022/01/03 07:42:07;;;;;;;7.90;3.70;;;18.70;71.50;;;;;;4994888;28;20034;-22
2022/01/03 07:44:33;;;;;;;4.15;3.15;;;18.70;71.50;;;;;;4994375;28;20041;-23
2022/01/03 07:46:59;;;;;;;4.47;3.47;;;18.60;71.60;;;;;;4994191;28;20066;-23
2022/01/03 07:49:24;;;;;;;8.00;3.30;;;18.60;71.40;;;;;;4993258;28;20027;-21
2022/01/03 07:51:50;;;;;;;5.25;3.47;;;18.60;71.70;;;;;;4990011;28;20414;-22
2022/01/03 07:54:16;;;;;;;3.28;2.97;;;18.60;71.30;;;;;;4993431;28;20083;-23
2022/01/03 07:56:41;;;;;;;5.28;3.45;;;18.60;71.40;;;;;;4994867;28;20069;-22
2022/01/03 07:59:07;;;;;;;3.97;3.33;;;18.50;71.40;;;;;;4991245;28;20072;-22
2022/01/03 08:01:33;;;;;;;3.63;2.95;;;18.50;71.40;;;;;;4991210;28;20466;-23
2022/01/03 08:03:58;;;;;;;4.10;2.90;;;18.50;71.40;;;;;;4995014;28;20023;-22
2022/01/03 08:06:24;;;;;;;3.42;2.70;;;18.50;71.40;;;;;;4983804;28;20043;-22
2022/01/03 08:08:50;;;;;;;3.15;2.65;;;18.50;71.30;;;;;;4989557;28;20065;-23
2022/01/03 08:11:16;;;;;;;5.90;3.08;;;18.50;71.40;;;;;;4988623;28;20058;-23
2022/01/03 08:13:41;;;;;;;5.43;2.60;;;18.50;71.20;;;;;;4991354;28;20142;-23
2022/01/03 08:16:07;;;;;;;2.83;2.42;;;18.50;71.20;;;;;;4991529;28;20118;-22
2022/01/03 08:18:33;;;;;;;4.93;2.95;;;18.50;71.10;;;;;;4993173;28;20113;-23
2022/01/03 08:20:59;;;;;;;6.03;3.00;;;18.50;71.20;;;;;;4994700;28;20105;-22
2022/01/03 08:23:25;;;;;;;3.40;2.90;;;18.50;71.10;;;;;;4990721;28;20034;-23
2022/01/03 08:25:50;;;;;;;3.13;2.40;;;18.50;71.00;;;;;;5002507;28;20022;-21
2022/01/03 08:28:16;;;;;;;3.90;2.50;;;18.50;71.10;;;;;;4981637;28;20383;-22
2022/01/03 08:30:41;;;;;;;3.17;2.60;;;18.40;71.10;;;;;;4986060;28;20041;-23
2022/01/03 08:33:07;;;;;;;3.55;2.67;;;18.40;71.10;;;;;;4993518;28;20027;-22
2022/01/03 08:35:33;;;;;;;3.22;2.53;;;18.50;71.00;;;;;;4988151;28;20026;-22
2022/01/03 08:37:58;;;;;;;3.75;2.70;;;18.50;71.00;;;;;;4990699;28;20034;-22
2022/01/03 08:40:26;;;;;;;3.78;2.63;;;18.50;70.90;;;;;;4990229;28;20038;-22
2022/01/03 08:42:51;;;;;;;2.45;2.25;;;18.40;70.80;;;;;;5005218;28;20036;-22
2022/01/03 08:45:17;;;;;;;3.65;2.28;;;18.50;70.90;;;;;;4989970;28;20077;-22
2022/01/03 08:47:43;;;;;;;4.03;2.38;;;18.50;70.90;;;;;;4992407;28;20130;-22
2022/01/03 08:50:08;;;;;;;2.30;2.10;;;18.50;70.90;;;;;;4991278;28;20050;-22
2022/01/03 08:52:34;;;;;;;4.00;2.20;;;18.50;70.80;;;;;;5005874;28;20034;-23
2022/01/03 08:55:00;;;;;;;2.88;2.20;;;18.50;70.90;;;;;;5012791;28;20048;-22
2022/01/03 08:57:25;;;;;;;3.38;2.22;;;18.40;70.80;;;;;;5013809;28;20038;-22
2022/01/03 08:59:51;;;;;;;3.35;2.35;;;18.40;70.80;;;;;;5003963;28;20050;-21
2022/01/03 09:02:17;;;;;;;2.60;2.30;;;18.40;70.80;;;;;;4991894;28;20054;-22
2022/01/03 09:04:43;;;;;;;3.08;2.20;;;18.50;70.90;;;;;;5001836;28;20056;-23
2022/01/03 09:07:09;;;;;;;2.63;2.25;;;18.40;70.80;;;;;;5012244;28;20813;-22
2022/01/03 09:09:35;;;;;;;2.75;2.20;;;18.40;70.90;;;;;;4993068;28;20133;-22
2022/01/03 09:12:01;;;;;;;3.22;2.17;;;18.50;70.60;;;;;;4991118;28;20543;-21
2022/01/03 09:14:27;;;;;;;4.45;2.22;;;18.50;70.80;;;;;;4992484;28;20054;-22
2022/01/03 09:16:53;;;;;;;3.35;2.03;;;18.60;71.10;;;;;;4990249;28;20838;-20
2022/01/03 09:19:19;;;;;;;3.10;2.72;;;18.60;71.70;;;;;;4992876;28;20134;-23
2022/01/03 09:21:44;;;;;;;3.70;2.33;;;18.60;71.70;;;;;;4987196;28;20102;-21
2022/01/03 09:29:26;;;;;;;;;;;18.70;71.60;;;;;;4995231;28;20406;-20
2022/01/03 09:31:52;;;;;;;2.30;2.00;;;18.70;71.50;;;;;;4990917;28;19925;-23
2022/01/03 09:34:17;;;;;;;2.40;2.20;;;18.60;71.40;;;;;;4996848;28;20038;-22
2022/01/03 09:36:43;;;;;;;1.77;1.67;;;18.60;71.20;;;;;;5004938;28;20054;-21
2022/01/03 09:39:08;;;;;;;2.95;2.20;;;18.60;71.20;;;;;;4991877;28;20446;-22
2022/01/03 09:41:34;;;;;;;3.53;2.33;;;18.60;71.30;;;;;;4992657;28;20049;-22
2022/01/03 09:44:04;;;;;;;4.20;2.40;;;18.60;71.60;;;;;;4989065;28;20042;-22
2022/01/03 09:46:34;;;;;;;2.70;2.28;;;18.60;71.60;;;;;;4990404;28;20077;-23
2022/01/03 09:49:00;;;;;;;2.30;1.90;;;18.60;71.80;;;;;;4989813;28;20145;-21
2022/01/03 09:51:27;;;;;;;2.40;2.10;;;18.50;71.70;;;;;;4994793;28;20070;-24
2022/01/03 09:53:54;;;;;;;3.08;2.20;;;18.50;71.70;;;;;;4995202;28;20042;-22
2022/01/03 09:56:19;;;;;;;2.05;1.85;;;18.50;71.70;;;;;;4996675;28;20411;-22
2022/01/03 09:58:45;;;;;;;4.13;2.03;;;18.50;71.60;;;;;;4995775;28;20054;-22
2022/01/03 10:01:11;;;;;;;2.03;1.83;;;18.50;72.10;;;;;;5007754;28;20041;-21
2022/01/03 10:03:36;;;;;;;2.53;1.88;;;18.50;71.50;;;;;;5006495;28;20565;-22
2022/01/03 10:06:02;;;;;;;3.55;2.17;;;18.60;71.20;;;;;;5013175;28;20074;-20
2022/01/03 10:08:28;;;;;;;2.30;2.10;;;18.50;71.70;;;;;;5014710;28;20061;-22
2022/01/03 10:10:54;;;;;;;2.58;1.80;;;18.60;71.50;;;;;;5009321;28;20493;-22
2022/01/03 10:13:19;;;;;;;1.98;1.75;;;18.50;71.70;;;;;;5013116;28;20069;-22
2022/01/03 10:15:46;;;;;;;3.00;1.95;;;18.50;71.70;;;;;;5013117;28;20037;-22
2022/01/03 10:18:18;;;;;;;3.25;2.30;;;18.50;71.80;;;;;;5012366;28;20058;-22
2022/01/03 10:20:44;;;;;;;2.15;1.95;;;18.50;71.70;;;;;;5012379;28;20050;-22
2022/01/03 10:23:11;;;;;;;2.47;1.90;;;18.50;71.70;;;;;;5014107;28;20526;-22
2022/01/03 10:25:36;;;;;;;2.15;1.95;;;18.50;71.70;;;;;;5003075;28;20074;-22
2022/01/03 10:28:04;;;;;;;1.73;1.63;;;18.50;71.70;;;;;;4997855;28;20053;-22
2022/01/03 10:30:29;;;;;;;2.50;2.10;;;18.50;71.50;;;;;;4998026;28;20056;-23
2022/01/03 10:32:55;;;;;;;2.08;1.67;;;18.50;71.60;;;;;;4997674;28;20464;-21
2022/01/03 10:35:21;;;;;;;1.85;1.75;;;18.50;71.50;;;;;;4998398;28;20070;-22
2022/01/03 10:37:48;;;;;;;3.10;2.17;;;18.50;71.30;;;;;;4998801;28;20046;-22
2022/01/03 10:40:28;;;;;;;2.55;1.85;;;18.50;71.50;;;;;;4996231;28;20045;-21
2022/01/03 10:42:57;;;;;;;1.80;1.70;;;18.50;71.40;;;;;;4985968;28;20125;-22
2022/01/03 10:45:33;;;;;;;2.30;2.10;;;18.50;71.40;;;;;;5016632;28;20053;-21
2022/01/03 10:47:59;;;;;;;2.58;1.70;;;18.50;71.50;;;;;;5000400;28;20049;-20
2022/01/03 10:50:25;;;;;;;1.88;1.77;;;18.50;71.50;;;;;;4996186;28;20055;-22
2022/01/03 10:52:51;;;;;;;1.90;1.80;;;18.50;71.30;;;;;;4998031;28;20122;-22
2022/01/03 10:55:22;;;;;;;2.08;1.73;;;18.50;71.30;;;;;;4995054;28;20124;-22
2022/01/03 10:57:56;;;;;;;1.60;1.48;;;18.50;71.20;;;;;;4997982;28;20042;-21
2022/01/03 11:00:25;;;;;;;1.70;1.45;;;18.50;71.20;;;;;;4989267;28;20514;-22
2022/01/03 11:03:11;;;;;;;1.70;1.58;;;18.50;71.20;;;;;;4982540;28;20121;-20
2022/01/03 11:05:38;;;;;;;2.90;1.60;;;18.50;71.30;;;;;;5008214;28;20049;-21
2022/01/03 11:10:45;;;;;;;1.75;1.65;;;18.50;71.20;;;;;;4994489;28;20182;-23
2022/01/03 11:13:21;;;;;;;1.77;1.40;;;18.50;71.20;;;;;;4996106;28;20042;-22
2022/01/03 11:15:55;;;;;;;2.42;1.63;;;18.50;71.40;;;;;;4997698;28;20450;-21
2022/01/03 11:18:21;;;;;;;1.98;1.70;;;18.50;71.20;;;;;;4995408;28;20046;-22
2022/01/03 11:20:50;;;;;;;1.65;1.40;;;18.50;71.00;;;;;;4997188;28;20051;-22
2022/01/03 11:23:20;;;;;;;1.50;1.40;;;18.50;71.10;;;;;;4996468;28;20046;-22
2022/01/03 11:25:45;;;;;;;2.20;1.67;;;18.50;71.00;;;;;;4991528;28;20046;-22
2022/01/03 11:28:11;;;;;;;1.60;1.50;;;18.50;71.00;;;;;;4993586;28;20088;-22
2022/01/03 11:30:37;;;;;;;1.80;1.20;;;18.50;70.90;;;;;;4978003;28;20046;-23
2022/01/03 11:33:04;;;;;;;1.45;1.35;;;18.50;70.90;;;;;;4988123;28;20487;-22
2022/01/03 11:35:30;;;;;;;2.15;1.52;;;18.50;71.00;;;;;;5011172;28;20112;-23
2022/01/03 11:37:56;;;;;;;2.47;1.70;;;18.50;71.00;;;;;;4995490;28;20576;-22
2022/01/03 11:40:22;;;;;;;2.53;1.58;;;18.50;70.90;;;;;;4988254;28;20292;-22
2022/01/03 11:42:48;;;;;;;1.50;1.30;;;18.50;70.90;;;;;;4983287;28;20594;-22
2022/01/03 11:45:14;;;;;;;3.63;1.50;;;18.50;70.80;;;;;;4995281;28;20062;-22
2022/01/03 11:47:39;;;;;;;2.20;1.60;;;18.50;70.80;;;;;;4995770;28;20051;-22
2022/01/03 11:50:06;;;;;;;1.70;1.30;;;18.50;70.70;;;;;;4994828;28;20042;-22
2022/01/03 11:52:33;;;;;;;1.27;1.13;;;18.50;70.70;;;;;;5000755;28;20038;-22
2022/01/03 11:54:59;;;;;;;1.13;1.02;;;18.50;70.70;;;;;;5033326;28;20045;-21
2022/01/03 12:05:46;;;;;;;1.52;1.42;;;18.50;70.60;;;;;;5011459;28;20083;-22
2022/01/03 12:08:32;;;;;;;1.27;1.17;;;18.50;70.50;;;;;;5029874;28;20054;-23
2022/01/03 12:11:00;;;;;;;1.20;1.10;;;18.50;70.50;;;;;;5011767;28;20057;-22
2022/01/03 12:13:57;;;;;;;1.67;1.10;;;18.50;70.50;;;;;;5013289;28;20045;-20
2022/01/03 12:16:43;;;;;;;1.73;1.58;;;18.50;70.50;;;;;;5014062;28;20050;-22
2022/01/03 12:19:12;;;;;;;1.40;1.30;;;18.40;70.50;;;;;;5005728;28;20143;-20
2022/01/03 12:21:50;;;;;;;0.80;0.80;;;18.50;70.40;;;;;;4996216;28;20046;-21
2022/01/03 12:24:34;;;;;;;1.20;1.10;;;18.50;70.40;;;;;;4995463;28;20046;-23
2022/01/03 12:27:12;;;;;;;;;;;18.40;70.40;;;;;;4980002;28;20118;-22
2022/01/03 12:29:58;;;;;;;1.33;1.23;;;18.50;70.50;;;;;;4993675;28;20401;-22
2022/01/03 12:32:35;;;;;;;1.10;0.95;;;18.50;70.40;;;;;;4991260;28;20133;-22
2022/01/03 12:35:10;;;;;;;1.35;1.00;;;18.50;70.50;;;;;;5009543;28;20478;-21
2022/01/03 12:37:54;;;;;;;1.20;1.10;;;18.50;70.40;;;;;;4994736;28;20711;-22
2022/01/03 12:40:29;;;;;;;0.85;0.85;;;18.50;70.40;;;;;;4993268;28;20050;-23
2022/01/03 12:43:15;;;;;;;1.30;1.20;;;18.50;70.40;;;;;;4995222;28;20075;-22
2022/01/03 12:45:44;;;;;;;1.15;1.00;;;18.50;70.70;;;;;;5013661;28;20062;-22
2022/01/03 12:50:39;;;;;;;0.98;0.98;;;18.40;70.90;;;;;;4994596;28;20054;-22
2022/01/03 12:53:13;;;;;;;1.10;1.10;;;18.40;71.00;;;;;;4994049;28;20039;-23
2022/01/03 12:55:39;;;;;;;1.25;1.15;;;18.40;71.10;;;;;;4990504;28;20054;-21
2022/01/03 12:58:14;;;;;;;1.13;0.93;;;18.40;71.10;;;;;;4992204;28;20407;-23
2022/01/03 13:00:40;;;;;;;1.80;1.25;;;18.40;71.20;;;;;;4991571;28;20653;-23
2022/01/03 13:03:37;;;;;;;1.10;1.00;;;18.40;71.10;;;;;;4990137;28;20034;-22
2022/01/03 13:06:05;;;;;;;1.17;0.80;;;18.40;71.30;;;;;;4993605;28;20050;-23
2022/01/03 13:08:32;;;;;;;1.90;0.88;;;18.40;71.60;;;;;;4995418;28;20054;-20
2022/01/03 13:11:01;;;;;;;1.35;0.93;;;18.40;71.20;;;;;;4993507;28;20046;-22
2022/01/03 13:13:28;;;;;;;1.27;0.98;;;18.40;71.10;;;;;;4992416;28;20049;-22
2022/01/03 13:15:54;;;;;;;1.48;1.02;;;18.40;71.10;;;;;;4994962;28;20057;-22